Bartlettsville, Indiana
Current Conditions -  °F | °C
As of 3:03 PM on Sunday 23 Nov 2014 (Local Time) from KBMG Reporting Station
Light Rain Light Rain  
Wind Chill: 53°   Ceiling: 1400
Heat Index: 53°   Visibility: 4mi
Dew Point: 51°   Wind: 12mph
Humidity: 93%   Direction: 130°SE
Pressure: 29.55"   Gusts: NA
Location:  38.8737°N, 86.4563°W
Report Text: KBMG 232003Z 13010KT 4SM -RA BR SCT008 BKN014 OVC019 12/11 A2955 RMK AO2 P0000 T01170106
Loading
Personal Weather Stations






























Interactive Weather Map New forecast layout! Learn more

10-Day Weather Forecast

Advertisements
Track Severe Weather on mobile